Flight Track Log - Related Links

Times and Time Zones

All times are in EST time to prevent confusion due to time zone crossing. See the AFL1106 flight status page for this flight to view local times or setup timezone preferences in your user account.

Time Position Orientation Groundspeed Altitude Reporting Facility
EST Latitude Longitude Course Direction KTS MPH feet Rate Location/Type
Wed 09:48:00 AM 55.8479 37.4151 173° South  Level Estimated
Wed 09:49:00 AM 55.7530 37.4346 173° South  Level Estimated
Wed 09:50:00 AM 55.6580 37.4540 173° South  Level Estimated
Wed 09:51:00 AM 55.5631 37.4733 173° South  Level Estimated
Wed 09:52:00 AM 55.4682 37.4925 173° South  Level Estimated
Wed 09:53:00 AM 55.3733 37.5116 173° South  Level Estimated
Wed 09:54:00 AM 55.2783 37.5307 173° South  Level Estimated
Wed 09:55:00 AM 55.1834 37.5496 174° South  Level Estimated
Wed 09:56:00 AM 55.0885 37.5684 174° South  Level Estimated
Wed 09:57:00 AM 54.9935 37.5872 174° South  Level Estimated
Wed 09:58:00 AM 54.8986 37.6059 174° South  Level Estimated
Wed 09:59:00 AM 54.8036 37.6244 174° South  Level Estimated
Wed 10:00:00 AM 54.7087 37.6429 174° South  Level Estimated
Wed 10:01:00 AM 54.6137 37.6613 174° South  Level Estimated
Wed 10:02:00 AM 54.5264 37.6782 174° South  Level Estimated
Wed 10:03:00 AM 54.4390 37.6950 174° South  Level Estimated
Wed 10:04:00 AM 54.3517 37.7117 174° South  Level Estimated
Wed 10:05:00 AM 54.2643 37.7283 174° South  Level Estimated
Wed 10:06:00 AM 54.1769 37.7449 174° South  Level Estimated
Wed 10:07:00 AM 54.0896 37.7614 174° South  Level Estimated
Wed 10:08:00 AM 54.0022 37.7778 174° South  Level Estimated
Wed 10:09:00 AM 53.9148 37.7942 174° South  Level Estimated
Wed 10:10:00 AM 53.8274 37.8105 174° South  Level Estimated
Wed 10:11:00 AM 53.7401 37.8267 174° South  Level Estimated
Wed 10:12:00 AM 53.6527 37.8429 174° South  Level Estimated
Wed 10:13:00 AM 53.5653 37.8590 174° South  Level Estimated
Wed 10:14:00 AM 53.4779 37.8750 174° South  Level Estimated
Wed 10:15:00 AM 53.3905 37.8909 174° South  Level Estimated
Wed 10:16:00 AM 53.3031 37.9068 174° South  Level Estimated
Wed 10:17:00 AM 53.2157 37.9227 174° South  Level Estimated
Wed 10:18:00 AM 53.1283 37.9384 174° South  Level Estimated
Wed 10:19:00 AM 53.0410 37.9541 174° South  Level Estimated
Wed 10:20:00 AM 52.9535 37.9698 174° South  Level Estimated
Wed 10:20:27 AM 52.7894 38.8056 174° South 435 501 33,000  Level FlightAware ADS-B
Wed 10:21:07 AM 52.7072 38.8316 169° South 434 499 33,000  Level FlightAware ADS-B
Wed 10:21:50 AM 52.6214 38.8587 169° South 434 499 33,000  Level FlightAware ADS-B
Wed 10:22:30 AM 52.5507 38.8810 169° South 433 498 33,000  Level FlightAware ADS-B
Wed 10:23:10 AM 52.4640 38.9082 169° South 433 498 33,000  Level FlightAware ADS-B
Wed 10:23:50 AM 52.3900 38.9324 169° South 432 497 33,000  Level FlightAware ADS-B
Wed 10:24:30 AM 52.3112 38.9710 163° South 433 498 33,000  Level FlightAware ADS-B
Wed 10:25:09 AM 52.2357 39.0113 162° South 432 497 33,000  Level FlightAware ADS-B
Wed 10:25:50 AM 52.1626 39.0496 162° South 432 497 33,000  Level FlightAware ADS-B
Wed 10:29:49 AM 51.7095 39.2879 179° South 430 495 33,000  Level FlightAware ADS-B
Wed 10:30:30 AM 51.6321 39.3325 160° South 431 496 33,000  Level FlightAware ADS-B
Wed 10:31:10 AM 51.5550 39.3763 161° South 430 495 33,000  Level FlightAware ADS-B
Wed 10:31:50 AM 51.4813 39.4177 161° South 429 494 33,000  Level FlightAware ADS-B
Wed 10:32:30 AM 51.4079 39.4590 161° South 427 491 33,000  Level FlightAware ADS-B
Wed 10:33:10 AM 51.3316 39.5016 161° South 427 491 33,000  Level FlightAware ADS-B
Wed 10:33:48 AM 51.2621 39.5403 161° South 427 491 33,000  Level FlightAware ADS-B
Wed 10:34:22 AM 51.1988 39.5757 161° South 428 493 33,000  Level FlightAware ADS-B
Wed 10:35:09 AM 51.1143 39.6226 161° South 430 495 33,000  Level FlightAware ADS-B
Wed 10:35:50 AM 51.0328 39.6674 161° South 431 496 33,000  Level FlightAware ADS-B
Wed 10:36:30 AM 50.9599 39.7074 161° South 431 496 33,000  Level FlightAware ADS-B
Wed 10:39:00 AM 50.7406 39.6852 184° South  Level Estimated
Wed 10:40:00 AM 50.6529 39.6763 184° South  Level Estimated
Wed 10:41:00 AM 50.5652 39.6675 184° South  Level Estimated
Wed 10:42:00 AM 50.4775 39.6588 184° South  Level Estimated
Wed 10:43:00 AM 50.3897 39.6500 184° South  Level Estimated
Wed 10:44:00 AM 50.3020 39.6413 184° South  Level Estimated
Wed 10:45:00 AM 50.2143 39.6327 184° South  Level Estimated
Wed 10:46:00 AM 50.1265 39.6240 184° South  Level Estimated
Wed 10:47:00 AM 50.0388 39.6154 184° South  Level Estimated
Wed 10:48:00 AM 49.9511 39.6068 184° South  Level Estimated
Wed 10:49:00 AM 49.8633 39.5983 184° South  Level Estimated
Wed 10:50:00 AM 49.7756 39.5898 184° South  Level Estimated
Wed 10:51:00 AM 49.6879 39.5813 184° South  Level Estimated
Wed 10:52:00 AM 49.6002 39.5728 184° South  Level Estimated
Wed 10:53:00 AM 49.5124 39.5644 184° South  Level Estimated
Wed 10:54:00 AM 49.4247 39.5560 184° South  Level Estimated
Wed 10:55:00 AM 49.3370 39.5477 184° South  Level Estimated
Wed 10:56:00 AM 49.2492 39.5393 184° South  Level Estimated
Wed 10:57:00 AM 49.1615 39.5310 184° South  Level Estimated
Wed 10:58:00 AM 49.0738 39.5227 184° South  Level Estimated
Wed 10:59:00 AM 48.9860 39.5145 184° South  Level Estimated
Wed 11:00:00 AM 48.8983 39.5063 184° South  Level Estimated
Wed 11:01:00 AM 48.8105 39.4981 184° South  Level Estimated
Wed 11:02:00 AM 48.7228 39.4899 184° South  Level Estimated
Wed 11:03:00 AM 48.6351 39.4818 184° South  Level Estimated
Wed 11:04:00 AM 48.5473 39.4737 183° South  Level Estimated
Wed 11:05:00 AM 48.4596 39.4656 183° South  Level Estimated
Wed 11:06:00 AM 48.3718 39.4576 183° South  Level Estimated
Wed 11:07:00 AM 48.2841 39.4495 183° South  Level Estimated
Wed 11:08:00 AM 48.1964 39.4416 183° South  Level Estimated
Wed 11:09:00 AM 48.1086 39.4336 183° South  Level Estimated
Wed 11:10:00 AM 48.0209 39.4257 183° South  Level Estimated
Wed 11:11:00 AM 47.9331 39.4177 183° South  Level Estimated
Wed 11:12:00 AM 47.8454 39.4099 183° South  Level Estimated
Wed 11:13:00 AM 47.7577 39.4020 183° South  Level Estimated
Wed 11:14:00 AM 47.6699 39.3942 183° South  Level Estimated
Wed 11:15:00 AM 47.5822 39.3864 183° South  Level Estimated
Wed 11:16:00 AM 47.4944 39.3786 183° South  Level Estimated
Wed 11:17:00 AM 47.4067 39.3708 183° South  Level Estimated
Wed 11:18:00 AM 47.3189 39.3631 183° South  Level Estimated
Wed 11:19:00 AM 47.2312 39.3554 183° South  Level Estimated
Wed 11:20:00 AM 47.1434 39.3477 183° South  Level Estimated
Wed 11:21:00 AM 47.0557 39.3401 183° South  Level Estimated
Wed 11:22:00 AM 46.9679 39.3325 183° South  Level Estimated
Wed 11:23:00 AM 46.8802 39.3248 183° South  Level Estimated
Wed 11:24:00 AM 46.7924 39.3173 183° South  Level Estimated
Wed 11:25:00 AM 46.7047 39.3097 183° South  Level Estimated
Wed 11:26:00 AM 46.6169 39.3022 183° South  Level Estimated
Wed 11:27:00 AM 46.5292 39.2947 183° South  Level Estimated
Wed 11:28:00 AM 46.4414 39.2872 183° South  Level Estimated
Wed 11:29:00 AM 46.3537 39.2798 183° South  Level Estimated
Wed 11:30:00 AM 46.2659 39.2723 183° South  Level Estimated
Wed 11:31:00 AM 46.1782 39.2649 183° South  Level Estimated
Wed 11:32:00 AM 46.0904 39.2575 183° South  Level Estimated
Wed 11:33:00 AM 46.0027 39.2502 183° South  Level Estimated
Wed 11:34:00 AM 45.9149 39.2429 183° South  Level Estimated

Login

Don't have an account? Register now (free) for customized features, flight alerts, and more!